This is the latest recevied weather packets stored in our database for station/object DM8MH-13. If no packets are shown the sender has not sent any weather packets the latest 10 day(s).
| Time | Temp. | Humidity | Pressure | Rain* | Wind** | Luminosity | Snow |
|---|---|---|---|---|---|---|---|
| 1787853671 | 26.11° C | 59% | 1012.8 hPa | 0 mm | - | 8 W/m² | - |
| 1787853071 | 26.67° C | 58% | 1012.8 hPa | 0 mm | - | 14 W/m² | - |
| 1787852471 | 26.67° C | 57% | 1012.7 hPa | 0 mm | - | 20 W/m² | - |
| 1787851872 | 27.22° C | 56% | 1012.8 hPa | 0 mm | - | 27 W/m² | - |
| 1787851271 | 27.78° C | 56% | 1012.7 hPa | 0 mm | - | 42 W/m² | - |
| 1787850671 | 27.78° C | 55% | 1012.7 hPa | 0 mm | - | 81 W/m² | - |
| 1787850071 | 27.78° C | 54% | 1012.7 hPa | 0 mm | - | 97 W/m² | - |
| 1787849471 | 27.78° C | 54% | 1012.8 hPa | 0 mm | - | 109 W/m² | - |
| 1787848871 | 28.33° C | 54% | 1012.9 hPa | 0 mm | - | 105 W/m² | - |
| 1787848272 | 28.33° C | 54% | 1012.9 hPa | 0 mm | - | 99 W/m² | - |
| 1787847671 | 28.33° C | 54% | 1013.2 hPa | 0 mm | - | 107 W/m² | - |
| 1787847071 | 28.33° C | 55% | 1013.3 hPa | 0 mm | - | 159 W/m² | - |
| 1787846470 | 28.89° C | 54% | 1013.2 hPa | 0 mm | - | 163 W/m² | - |
| 1787845871 | 28.89° C | 55% | 1013.4 hPa | 0 mm | - | 234 W/m² | - |
| 1787845270 | 28.33° C | 56% | 1013.6 hPa | 0 mm | - | 231 W/m² | - |
| 1787844672 | 28.89° C | 55% | 1013.5 hPa | 0 mm | - | 166 W/m² | - |
| 1787844070 | 28.33° C | 56% | 1013.6 hPa | 0 mm | - | 197 W/m² | - |
| 1787843471 | 28.89° C | 55% | 1013.5 hPa | 0 mm | - | 228 W/m² | - |
| 1787842870 | 28.89° C | 55% | 1013.9 hPa | 0 mm | - | 234 W/m² | - |
| 1787842271 | 29.44° C | 54% | 1013.7 hPa | 0 mm | - | 353 W/m² | - |
| 1787841672 | 28.89° C | 56% | 1013.8 hPa | 0 mm | - | 390 W/m² | - |
| 1787841070 | 28.89° C | 55% | 1014 hPa | 0 mm | - | 373 W/m² | - |
| 1787840471 | 28.89° C | 56% | 1014 hPa | 0 mm | - | 438 W/m² | - |
| 1787839871 | 28.89° C | 55% | 1013.8 hPa | 0 mm | - | 536 W/m² | - |
| 1787839271 | 28.33° C | 56% | 1014.1 hPa | 0 mm | - | 509 W/m² | - |
* Rain latest hour (hover to see other rain measurements)
** Current wind speed in m/s (hover to see current wind gust speed)